sensor_id;sensor_type;location;lat;lon;timestamp;pressure;altitude;pressure_sealevel;temperature
74539;BMP180;66042;51.090;-115.340;2023-07-16T00:02:04;86895.60;;;40.10
74539;BMP180;66042;51.090;-115.340;2023-07-16T00:04:32;86886.80;;;40.10
74539;BMP180;66042;51.090;-115.340;2023-07-16T00:07:02;86882.20;;;40.30
74539;BMP180;66042;51.090;-115.340;2023-07-16T00:09:29;86877.20;;;41.08
74539;BMP180;66042;51.090;-115.340;2023-07-16T00:11:57;86879.80;;;41.68
74539;BMP180;66042;51.090;-115.340;2023-07-16T00:14:24;86878.80;;;41.90
74539;BMP180;66042;51.090;-115.340;2023-07-16T00:16:51;86878.60;;;42.22
74539;BMP180;66042;51.090;-115.340;2023-07-16T00:19:18;86874.80;;;42.62
74539;BMP180;66042;51.090;-115.340;2023-07-16T00:21:45;86880.40;;;42.90
74539;BMP180;66042;51.090;-115.340;2023-07-16T00:24:12;86878.40;;;42.90
74539;BMP180;66042;51.090;-115.340;2023-07-16T00:26:39;86886.60;;;43.12
74539;BMP180;66042;51.090;-115.340;2023-07-16T00:29:06;86896.40;;;42.34
74539;BMP180;66042;51.090;-115.340;2023-07-16T00:31:33;86897.60;;;40.98
74539;BMP180;66042;51.090;-115.340;2023-07-16T00:34:00;86895.20;;;39.80
74539;BMP180;66042;51.090;-115.340;2023-07-16T00:36:27;86885.60;;;39.50
74539;BMP180;66042;51.090;-115.340;2023-07-16T00:38:54;86884.40;;;40.24
74539;BMP180;66042;51.090;-115.340;2023-07-16T00:41:20;86885.40;;;40.90
74539;BMP180;66042;51.090;-115.340;2023-07-16T00:43:47;86885.60;;;40.70
74539;BMP180;66042;51.090;-115.340;2023-07-16T00:46:15;86883.80;;;40.44
74539;BMP180;66042;51.090;-115.340;2023-07-16T00:48:43;86882.00;;;40.44
74539;BMP180;66042;51.090;-115.340;2023-07-16T00:51:10;86890.40;;;40.50
74539;BMP180;66042;51.090;-115.340;2023-07-16T00:53:40;86891.80;;;39.90
74539;BMP180;66042;51.090;-115.340;2023-07-16T00:56:09;86890.60;;;39.02
74539;BMP180;66042;51.090;-115.340;2023-07-16T00:58:36;86886.20;;;38.14
74539;BMP180;66042;51.090;-115.340;2023-07-16T01:01:03;86892.60;;;37.36
74539;BMP180;66042;51.090;-115.340;2023-07-16T01:03:30;86894.60;;;36.54
74539;BMP180;66042;51.090;-115.340;2023-07-16T01:06:18;86890.40;;;35.88
74539;BMP180;66042;51.090;-115.340;2023-07-16T01:09:02;86889.20;;;35.08
74539;BMP180;66042;51.090;-115.340;2023-07-16T01:11:31;86886.00;;;34.54
74539;BMP180;66042;51.090;-115.340;2023-07-16T01:14:02;86884.20;;;34.20
74539;BMP180;66042;51.090;-115.340;2023-07-16T01:16:30;86882.00;;;33.74
74539;BMP180;66042;51.090;-115.340;2023-07-16T01:18:58;86882.20;;;33.30
74539;BMP180;66042;51.090;-115.340;2023-07-16T01:30:27;86872.80;;;31.54
74539;BMP180;66042;51.090;-115.340;2023-07-16T01:32:57;86877.60;;;31.04
74539;BMP180;66042;51.090;-115.340;2023-07-16T01:35:25;86871.80;;;30.60
74539;BMP180;66042;51.090;-115.340;2023-07-16T01:37:53;86869.00;;;30.80
74539;BMP180;66042;51.090;-115.340;2023-07-16T01:40:20;86868.00;;;31.04
74539;BMP180;66042;51.090;-115.340;2023-07-16T01:42:46;86867.20;;;31.00
74539;BMP180;66042;51.090;-115.340;2023-07-16T01:45:14;86863.40;;;31.10
74539;BMP180;66042;51.090;-115.340;2023-07-16T01:48:05;86872.00;;;31.30
74539;BMP180;66042;51.090;-115.340;2023-07-16T01:50:38;86868.40;;;31.40
74539;BMP180;66042;51.090;-115.340;2023-07-16T01:53:05;86860.40;;;31.50
74539;BMP180;66042;51.090;-115.340;2023-07-16T01:55:33;86867.20;;;31.50
74539;BMP180;66042;51.090;-115.340;2023-07-16T01:58:00;86868.40;;;31.24
74539;BMP180;66042;51.090;-115.340;2023-07-16T02:00:27;86876.00;;;30.90
74539;BMP180;66042;51.090;-115.340;2023-07-16T02:02:54;86878.40;;;30.52
74539;BMP180;66042;51.090;-115.340;2023-07-16T02:05:21;86874.60;;;30.20
74539;BMP180;66042;51.090;-115.340;2023-07-16T02:07:47;86876.20;;;29.90
74539;BMP180;66042;51.090;-115.340;2023-07-16T02:10:14;86882.00;;;29.50
74539;BMP180;66042;51.090;-115.340;2023-07-16T02:12:41;86884.20;;;29.14
74539;BMP180;66042;51.090;-115.340;2023-07-16T02:15:11;86888.20;;;28.76
74539;BMP180;66042;51.090;-115.340;2023-07-16T02:17:38;86890.00;;;28.46
74539;BMP180;66042;51.090;-115.340;2023-07-16T02:20:05;86893.80;;;28.20
74539;BMP180;66042;51.090;-115.340;2023-07-16T02:22:35;86903.20;;;27.90
74539;BMP180;66042;51.090;-115.340;2023-07-16T02:25:02;86904.80;;;27.70
74539;BMP180;66042;51.090;-115.340;2023-07-16T02:27:30;86892.40;;;27.40
74539;BMP180;66042;51.090;-115.340;2023-07-16T02:29:57;86895.00;;;27.10
74539;BMP180;66042;51.090;-115.340;2023-07-16T02:32:24;86898.20;;;26.90
74539;BMP180;66042;51.090;-115.340;2023-07-16T02:34:51;86901.00;;;26.70
74539;BMP180;66042;51.090;-115.340;2023-07-16T02:37:18;86900.80;;;26.50
74539;BMP180;66042;51.090;-115.340;2023-07-16T02:39:46;86905.60;;;26.30
74539;BMP180;66042;51.090;-115.340;2023-07-16T02:42:14;86909.20;;;26.10
74539;BMP180;66042;51.090;-115.340;2023-07-16T02:44:41;86904.20;;;25.90
74539;BMP180;66042;51.090;-115.340;2023-07-16T02:47:11;86899.80;;;25.70
74539;BMP180;66042;51.090;-115.340;2023-07-16T02:49:38;86911.60;;;25.50
74539;BMP180;66042;51.090;-115.340;2023-07-16T02:52:07;86914.60;;;25.34
74539;BMP180;66042;51.090;-115.340;2023-07-16T02:54:35;86923.20;;;25.16
74539;BMP180;66042;51.090;-115.340;2023-07-16T02:57:03;86925.20;;;25.00
74539;BMP180;66042;51.090;-115.340;2023-07-16T02:59:30;86922.00;;;24.80
74539;BMP180;66042;51.090;-115.340;2023-07-16T03:01:57;86921.40;;;24.70
74539;BMP180;66042;51.090;-115.340;2023-07-16T03:04:24;86922.00;;;24.60
74539;BMP180;66042;51.090;-115.340;2023-07-16T03:06:51;86919.20;;;24.48
74539;BMP180;66042;51.090;-115.340;2023-07-16T03:09:18;86919.60;;;24.24
74539;BMP180;66042;51.090;-115.340;2023-07-16T03:11:45;86917.60;;;24.10
74539;BMP180;66042;51.090;-115.340;2023-07-16T03:14:12;86919.40;;;24.00
74539;BMP180;66042;51.090;-115.340;2023-07-16T03:16:39;86923.80;;;23.90
74539;BMP180;66042;51.090;-115.340;2023-07-16T03:19:06;86924.60;;;23.76
74539;BMP180;66042;51.090;-115.340;2023-07-16T03:21:33;86932.00;;;23.60
74539;BMP180;66042;51.090;-115.340;2023-07-16T03:24:00;86937.40;;;23.44
74539;BMP180;66042;51.090;-115.340;2023-07-16T03:26:27;86935.20;;;23.30
74539;BMP180;66042;51.090;-115.340;2023-07-16T03:28:54;86931.80;;;23.20
74539;BMP180;66042;51.090;-115.340;2023-07-16T03:31:22;86937.20;;;23.10
74539;BMP180;66042;51.090;-115.340;2023-07-16T03:33:49;86935.80;;;22.92
74539;BMP180;66042;51.090;-115.340;2023-07-16T03:36:18;86939.80;;;22.80
74539;BMP180;66042;51.090;-115.340;2023-07-16T03:38:44;86942.40;;;22.70
74539;BMP180;66042;51.090;-115.340;2023-07-16T03:41:11;86937.20;;;22.50
74539;BMP180;66042;51.090;-115.340;2023-07-16T03:43:38;86936.60;;;22.40
74539;BMP180;66042;51.090;-115.340;2023-07-16T03:46:05;86942.60;;;22.30
74539;BMP180;66042;51.090;-115.340;2023-07-16T03:48:35;86948.00;;;22.10
74539;BMP180;66042;51.090;-115.340;2023-07-16T03:51:02;86952.00;;;22.00
74539;BMP180;66042;51.090;-115.340;2023-07-16T03:53:30;86953.60;;;21.90
74539;BMP180;66042;51.090;-115.340;2023-07-16T03:55:56;86958.20;;;21.80
74539;BMP180;66042;51.090;-115.340;2023-07-16T03:58:24;86961.80;;;21.70
74539;BMP180;66042;51.090;-115.340;2023-07-16T04:00:50;86969.40;;;21.60
74539;BMP180;66042;51.090;-115.340;2023-07-16T04:03:18;86968.20;;;21.50
74539;BMP180;66042;51.090;-115.340;2023-07-16T04:05:45;86967.60;;;21.40
74539;BMP180;66042;51.090;-115.340;2023-07-16T04:08:12;86969.80;;;21.30
74539;BMP180;66042;51.090;-115.340;2023-07-16T04:10:40;86970.60;;;21.18
74539;BMP180;66042;51.090;-115.340;2023-07-16T04:13:07;86968.40;;;21.00
74539;BMP180;66042;51.090;-115.340;2023-07-16T04:15:34;86975.80;;;21.00
74539;BMP180;66042;51.090;-115.340;2023-07-16T04:18:01;86979.40;;;20.90
74539;BMP180;66042;51.090;-115.340;2023-07-16T04:20:30;86982.60;;;20.80
74539;BMP180;66042;51.090;-115.340;2023-07-16T04:22:57;86984.20;;;20.70
74539;BMP180;66042;51.090;-115.340;2023-07-16T04:25:24;86985.60;;;20.60
74539;BMP180;66042;51.090;-115.340;2023-07-16T04:27:51;86981.40;;;20.52
74539;BMP180;66042;51.090;-115.340;2023-07-16T04:30:18;86979.80;;;20.40
74539;BMP180;66042;51.090;-115.340;2023-07-16T04:32:45;86979.80;;;20.34
74539;BMP180;66042;51.090;-115.340;2023-07-16T04:35:12;86988.00;;;20.30
74539;BMP180;66042;51.090;-115.340;2023-07-16T04:37:39;86990.80;;;20.20
74539;BMP180;66042;51.090;-115.340;2023-07-16T04:40:08;87000.40;;;20.10
74539;BMP180;66042;51.090;-115.340;2023-07-16T04:42:40;86995.00;;;20.06
74539;BMP180;66042;51.090;-115.340;2023-07-16T04:45:08;86999.20;;;20.00
74539;BMP180;66042;51.090;-115.340;2023-07-16T04:47:36;87004.60;;;19.90
74539;BMP180;66042;51.090;-115.340;2023-07-16T04:50:03;87009.00;;;19.84
74539;BMP180;66042;51.090;-115.340;2023-07-16T04:52:31;87005.60;;;19.70
74539;BMP180;66042;51.090;-115.340;2023-07-16T04:54:57;86999.00;;;19.70
74539;BMP180;66042;51.090;-115.340;2023-07-16T04:57:26;86995.60;;;19.60
74539;BMP180;66042;51.090;-115.340;2023-07-16T04:59:53;86999.40;;;19.50
74539;BMP180;66042;51.090;-115.340;2023-07-16T05:02:21;86999.40;;;19.40
74539;BMP180;66042;51.090;-115.340;2023-07-16T05:04:48;87004.80;;;19.40
74539;BMP180;66042;51.090;-115.340;2023-07-16T05:07:15;87006.40;;;19.40
74539;BMP180;66042;51.090;-115.340;2023-07-16T05:09:43;87005.80;;;19.30
74539;BMP180;66042;51.090;-115.340;2023-07-16T05:12:10;87006.60;;;19.30
74539;BMP180;66042;51.090;-115.340;2023-07-16T05:14:47;87013.20;;;19.20
74539;BMP180;66042;51.090;-115.340;2023-07-16T05:17:14;87008.40;;;19.12
74539;BMP180;66042;51.090;-115.340;2023-07-16T05:19:42;87009.40;;;19.10
74539;BMP180;66042;51.090;-115.340;2023-07-16T05:22:09;87010.20;;;19.00
74539;BMP180;66042;51.090;-115.340;2023-07-16T05:24:36;87015.20;;;18.90
74539;BMP180;66042;51.090;-115.340;2023-07-16T05:27:05;87015.80;;;18.88
74539;BMP180;66042;51.090;-115.340;2023-07-16T05:29:32;87023.20;;;18.82
74539;BMP180;66042;51.090;-115.340;2023-07-16T05:31:59;87027.60;;;18.80
74539;BMP180;66042;51.090;-115.340;2023-07-16T05:34:26;87025.40;;;18.80
74539;BMP180;66042;51.090;-115.340;2023-07-16T05:36:56;87029.40;;;18.70
74539;BMP180;66042;51.090;-115.340;2023-07-16T05:39:23;87035.20;;;18.70
74539;BMP180;66042;51.090;-115.340;2023-07-16T05:41:50;87037.60;;;18.60
74539;BMP180;66042;51.090;-115.340;2023-07-16T05:44:17;87041.00;;;18.60
74539;BMP180;66042;51.090;-115.340;2023-07-16T05:46:44;87043.60;;;18.60
74539;BMP180;66042;51.090;-115.340;2023-07-16T05:49:11;87049.80;;;18.50
74539;BMP180;66042;51.090;-115.340;2023-07-16T05:51:40;87051.80;;;18.40
74539;BMP180;66042;51.090;-115.340;2023-07-16T05:54:08;87051.00;;;18.40
74539;BMP180;66042;51.090;-115.340;2023-07-16T05:56:35;87053.40;;;18.40
74539;BMP180;66042;51.090;-115.340;2023-07-16T05:59:02;87051.00;;;18.30
74539;BMP180;66042;51.090;-115.340;2023-07-16T06:01:29;87054.00;;;18.30
74539;BMP180;66042;51.090;-115.340;2023-07-16T06:03:55;87057.00;;;18.20
74539;BMP180;66042;51.090;-115.340;2023-07-16T06:06:22;87053.60;;;18.20
74539;BMP180;66042;51.090;-115.340;2023-07-16T06:08:49;87052.60;;;18.20
74539;BMP180;66042;51.090;-115.340;2023-07-16T06:11:16;87049.80;;;18.00
74539;BMP180;66042;51.090;-115.340;2023-07-16T06:13:43;87054.40;;;18.00
74539;BMP180;66042;51.090;-115.340;2023-07-16T06:16:10;87048.60;;;17.92
74539;BMP180;66042;51.090;-115.340;2023-07-16T06:18:37;87047.40;;;17.90
74539;BMP180;66042;51.090;-115.340;2023-07-16T06:21:04;87048.20;;;17.80
74539;BMP180;66042;51.090;-115.340;2023-07-16T06:23:31;87040.40;;;17.80
74539;BMP180;66042;51.090;-115.340;2023-07-16T06:25:58;87037.20;;;17.80
74539;BMP180;66042;51.090;-115.340;2023-07-16T06:28:24;87035.60;;;17.70
74539;BMP180;66042;51.090;-115.340;2023-07-16T06:30:51;87037.40;;;17.70
74539;BMP180;66042;51.090;-115.340;2023-07-16T06:33:19;87037.60;;;17.60
74539;BMP180;66042;51.090;-115.340;2023-07-16T06:35:47;87037.00;;;17.60
74539;BMP180;66042;51.090;-115.340;2023-07-16T06:38:15;87034.00;;;17.58
74539;BMP180;66042;51.090;-115.340;2023-07-16T06:40:49;87033.80;;;17.50
74539;BMP180;66042;51.090;-115.340;2023-07-16T06:43:16;87034.20;;;17.50
74539;BMP180;66042;51.090;-115.340;2023-07-16T06:45:44;87039.20;;;17.40
74539;BMP180;66042;51.090;-115.340;2023-07-16T06:48:11;87035.80;;;17.40
74539;BMP180;66042;51.090;-115.340;2023-07-16T06:50:37;87035.60;;;17.40
74539;BMP180;66042;51.090;-115.340;2023-07-16T06:53:04;87033.00;;;17.24
74539;BMP180;66042;51.090;-115.340;2023-07-16T06:55:31;87035.00;;;17.20
74539;BMP180;66042;51.090;-115.340;2023-07-16T06:58:00;87039.00;;;17.12
74539;BMP180;66042;51.090;-115.340;2023-07-16T07:00:27;87042.80;;;17.10
74539;BMP180;66042;51.090;-115.340;2023-07-16T07:02:54;87040.20;;;17.06
74539;BMP180;66042;51.090;-115.340;2023-07-16T07:05:21;87039.40;;;17.00
74539;BMP180;66042;51.090;-115.340;2023-07-16T07:07:48;87043.00;;;16.90
74539;BMP180;66042;51.090;-115.340;2023-07-16T07:10:15;87043.20;;;16.90
74539;BMP180;66042;51.090;-115.340;2023-07-16T07:12:42;87040.00;;;16.80
74539;BMP180;66042;51.090;-115.340;2023-07-16T07:15:10;87043.20;;;16.80
74539;BMP180;66042;51.090;-115.340;2023-07-16T07:17:37;87040.00;;;16.74
74539;BMP180;66042;51.090;-115.340;2023-07-16T07:20:04;87040.60;;;16.70
74539;BMP180;66042;51.090;-115.340;2023-07-16T07:22:32;87043.40;;;16.60
74539;BMP180;66042;51.090;-115.340;2023-07-16T07:24:58;87044.00;;;16.60
74539;BMP180;66042;51.090;-115.340;2023-07-16T07:27:25;87040.60;;;16.50
74539;BMP180;66042;51.090;-115.340;2023-07-16T07:29:52;87045.00;;;16.50
74539;BMP180;66042;51.090;-115.340;2023-07-16T07:32:22;87051.60;;;16.50
74539;BMP180;66042;51.090;-115.340;2023-07-16T07:34:49;87051.60;;;16.40
74539;BMP180;66042;51.090;-115.340;2023-07-16T07:37:16;87050.80;;;16.30
74539;BMP180;66042;51.090;-115.340;2023-07-16T07:39:43;87045.20;;;16.30
74539;BMP180;66042;51.090;-115.340;2023-07-16T07:42:14;87046.00;;;16.30
74539;BMP180;66042;51.090;-115.340;2023-07-16T07:44:41;87049.20;;;16.24
74539;BMP180;66042;51.090;-115.340;2023-07-16T07:47:08;87055.40;;;16.20
74539;BMP180;66042;51.090;-115.340;2023-07-16T07:49:35;87053.80;;;16.20
74539;BMP180;66042;51.090;-115.340;2023-07-16T07:52:02;87055.80;;;16.16
74539;BMP180;66042;51.090;-115.340;2023-07-16T07:54:31;87060.20;;;16.10
74539;BMP180;66042;51.090;-115.340;2023-07-16T07:57:02;87059.80;;;15.90
74539;BMP180;66042;51.090;-115.340;2023-07-16T07:59:32;87059.60;;;15.90
74539;BMP180;66042;51.090;-115.340;2023-07-16T08:01:59;87063.80;;;15.90
74539;BMP180;66042;51.090;-115.340;2023-07-16T08:04:28;87063.80;;;15.90
74539;BMP180;66042;51.090;-115.340;2023-07-16T08:06:55;87060.60;;;15.90
74539;BMP180;66042;51.090;-115.340;2023-07-16T08:09:22;87063.60;;;15.90
74539;BMP180;66042;51.090;-115.340;2023-07-16T08:11:49;87061.80;;;15.80
74539;BMP180;66042;51.090;-115.340;2023-07-16T08:14:16;87068.20;;;15.80
74539;BMP180;66042;51.090;-115.340;2023-07-16T08:16:42;87067.80;;;15.70
74539;BMP180;66042;51.090;-115.340;2023-07-16T08:19:09;87067.00;;;15.60
74539;BMP180;66042;51.090;-115.340;2023-07-16T08:21:36;87071.20;;;15.50
74539;BMP180;66042;51.090;-115.340;2023-07-16T08:24:06;87074.80;;;15.40
74539;BMP180;66042;51.090;-115.340;2023-07-16T08:26:33;87075.80;;;15.40
74539;BMP180;66042;51.090;-115.340;2023-07-16T08:29:00;87078.20;;;15.40
74539;BMP180;66042;51.090;-115.340;2023-07-16T08:31:27;87080.80;;;15.40
74539;BMP180;66042;51.090;-115.340;2023-07-16T08:33:54;87079.80;;;15.40
74539;BMP180;66042;51.090;-115.340;2023-07-16T08:36:21;87084.40;;;15.40
74539;BMP180;66042;51.090;-115.340;2023-07-16T08:38:47;87083.20;;;15.30
74539;BMP180;66042;51.090;-115.340;2023-07-16T08:41:15;87088.60;;;15.16
74539;BMP180;66042;51.090;-115.340;2023-07-16T08:43:46;87093.20;;;15.20
74539;BMP180;66042;51.090;-115.340;2023-07-16T08:46:15;87092.20;;;15.18
74539;BMP180;66042;51.090;-115.340;2023-07-16T08:48:43;87085.40;;;15.00
74539;BMP180;66042;51.090;-115.340;2023-07-16T08:51:14;87085.20;;;15.00
74539;BMP180;66042;51.090;-115.340;2023-07-16T08:53:42;87088.00;;;15.00
74539;BMP180;66042;51.090;-115.340;2023-07-16T08:56:09;87090.40;;;15.10
74539;BMP180;66042;51.090;-115.340;2023-07-16T08:58:37;87085.00;;;15.04
74539;BMP180;66042;51.090;-115.340;2023-07-16T09:01:06;87086.20;;;15.00
74539;BMP180;66042;51.090;-115.340;2023-07-16T09:03:32;87085.40;;;15.00
74539;BMP180;66042;51.090;-115.340;2023-07-16T09:05:59;87078.80;;;15.00
74539;BMP180;66042;51.090;-115.340;2023-07-16T09:08:26;87076.00;;;15.00
74539;BMP180;66042;51.090;-115.340;2023-07-16T09:10:56;87081.40;;;15.00
74539;BMP180;66042;51.090;-115.340;2023-07-16T09:13:26;87078.00;;;14.90
74539;BMP180;66042;51.090;-115.340;2023-07-16T09:15:58;87075.40;;;14.90
74539;BMP180;66042;51.090;-115.340;2023-07-16T09:18:27;87070.00;;;14.80
74539;BMP180;66042;51.090;-115.340;2023-07-16T09:20:59;87068.60;;;14.80
74539;BMP180;66042;51.090;-115.340;2023-07-16T09:23:32;87067.60;;;14.80
74539;BMP180;66042;51.090;-115.340;2023-07-16T09:25:59;87067.80;;;14.70
74539;BMP180;66042;51.090;-115.340;2023-07-16T09:28:26;87065.80;;;14.60
74539;BMP180;66042;51.090;-115.340;2023-07-16T09:30:53;87062.40;;;14.60
74539;BMP180;66042;51.090;-115.340;2023-07-16T09:33:22;87063.20;;;14.60
74539;BMP180;66042;51.090;-115.340;2023-07-16T09:35:52;87066.20;;;14.60
74539;BMP180;66042;51.090;-115.340;2023-07-16T09:38:19;87056.60;;;14.50
74539;BMP180;66042;51.090;-115.340;2023-07-16T09:40:46;87054.20;;;14.50
74539;BMP180;66042;51.090;-115.340;2023-07-16T09:43:13;87057.00;;;14.50
74539;BMP180;66042;51.090;-115.340;2023-07-16T09:45:41;87059.00;;;14.50
74539;BMP180;66042;51.090;-115.340;2023-07-16T09:48:09;87053.40;;;14.50
74539;BMP180;66042;51.090;-115.340;2023-07-16T09:50:38;87053.80;;;14.50
74539;BMP180;66042;51.090;-115.340;2023-07-16T09:53:09;87049.20;;;14.50
74539;BMP180;66042;51.090;-115.340;2023-07-16T09:55:36;87045.20;;;14.44
74539;BMP180;66042;51.090;-115.340;2023-07-16T09:58:09;87044.40;;;14.40
74539;BMP180;66042;51.090;-115.340;2023-07-16T10:00:38;87043.20;;;14.40
74539;BMP180;66042;51.090;-115.340;2023-07-16T10:03:09;87047.60;;;14.40
74539;BMP180;66042;51.090;-115.340;2023-07-16T10:05:39;87050.00;;;14.36
74539;BMP180;66042;51.090;-115.340;2023-07-16T10:08:19;87047.20;;;14.30
74539;BMP180;66042;51.090;-115.340;2023-07-16T10:10:55;87047.60;;;14.30
74539;BMP180;66042;51.090;-115.340;2023-07-16T10:13:27;87050.20;;;14.20
74539;BMP180;66042;51.090;-115.340;2023-07-16T10:15:59;87053.00;;;14.18
74539;BMP180;66042;51.090;-115.340;2023-07-16T10:18:31;87053.20;;;14.14
74539;BMP180;66042;51.090;-115.340;2023-07-16T10:21:09;87055.00;;;14.10
74539;BMP180;66042;51.090;-115.340;2023-07-16T10:23:43;87059.40;;;14.10
74539;BMP180;66042;51.090;-115.340;2023-07-16T10:26:14;87056.00;;;14.00
74539;BMP180;66042;51.090;-115.340;2023-07-16T10:28:42;87053.40;;;14.00
74539;BMP180;66042;51.090;-115.340;2023-07-16T10:31:24;87056.40;;;14.00
74539;BMP180;66042;51.090;-115.340;2023-07-16T10:34:04;87052.80;;;13.90
74539;BMP180;66042;51.090;-115.340;2023-07-16T10:36:38;87052.20;;;13.90
74539;BMP180;66042;51.090;-115.340;2023-07-16T10:39:05;87053.00;;;13.90
74539;BMP180;66042;51.090;-115.340;2023-07-16T10:41:32;87053.40;;;13.80
74539;BMP180;66042;51.090;-115.340;2023-07-16T10:44:01;87052.20;;;13.80
74539;BMP180;66042;51.090;-115.340;2023-07-16T10:46:28;87052.00;;;13.70
74539;BMP180;66042;51.090;-115.340;2023-07-16T10:48:55;87049.80;;;13.70
74539;BMP180;66042;51.090;-115.340;2023-07-16T10:51:31;87052.60;;;13.70
74539;BMP180;66042;51.090;-115.340;2023-07-16T10:53:59;87052.00;;;13.70
74539;BMP180;66042;51.090;-115.340;2023-07-16T10:56:26;87049.40;;;13.70
74539;BMP180;66042;51.090;-115.340;2023-07-16T10:58:52;87048.60;;;13.66
74539;BMP180;66042;51.090;-115.340;2023-07-16T11:01:20;87049.60;;;13.60
74539;BMP180;66042;51.090;-115.340;2023-07-16T11:03:47;87048.80;;;13.60
74539;BMP180;66042;51.090;-115.340;2023-07-16T11:06:14;87044.20;;;13.60
74539;BMP180;66042;51.090;-115.340;2023-07-16T11:08:43;87050.60;;;13.50
74539;BMP180;66042;51.090;-115.340;2023-07-16T11:11:10;87052.00;;;13.50
74539;BMP180;66042;51.090;-115.340;2023-07-16T11:13:36;87052.40;;;13.40
74539;BMP180;66042;51.090;-115.340;2023-07-16T11:16:10;87049.60;;;13.40
74539;BMP180;66042;51.090;-115.340;2023-07-16T11:18:37;87052.20;;;13.40
74539;BMP180;66042;51.090;-115.340;2023-07-16T11:21:04;87050.80;;;13.40
74539;BMP180;66042;51.090;-115.340;2023-07-16T11:23:37;87052.60;;;13.40
74539;BMP180;66042;51.090;-115.340;2023-07-16T11:26:04;87056.40;;;13.40
74539;BMP180;66042;51.090;-115.340;2023-07-16T11:28:41;87058.60;;;13.30
74539;BMP180;66042;51.090;-115.340;2023-07-16T11:31:16;87057.40;;;13.30
74539;BMP180;66042;51.090;-115.340;2023-07-16T11:33:45;87058.00;;;13.28
74539;BMP180;66042;51.090;-115.340;2023-07-16T11:36:13;87060.20;;;13.20
74539;BMP180;66042;51.090;-115.340;2023-07-16T11:38:40;87057.00;;;13.20
74539;BMP180;66042;51.090;-115.340;2023-07-16T11:41:06;87058.40;;;13.10
74539;BMP180;66042;51.090;-115.340;2023-07-16T11:43:37;87055.40;;;13.02
74539;BMP180;66042;51.090;-115.340;2023-07-16T11:46:16;87058.60;;;13.04
74539;BMP180;66042;51.090;-115.340;2023-07-16T11:48:43;87059.80;;;13.10
74539;BMP180;66042;51.090;-115.340;2023-07-16T11:51:10;87060.00;;;13.06
74539;BMP180;66042;51.090;-115.340;2023-07-16T11:53:37;87053.20;;;13.02
74539;BMP180;66042;51.090;-115.340;2023-07-16T11:56:05;87054.00;;;13.00
74539;BMP180;66042;51.090;-115.340;2023-07-16T11:58:32;87054.80;;;13.00
74539;BMP180;66042;51.090;-115.340;2023-07-16T12:00:59;87053.20;;;13.00
74539;BMP180;66042;51.090;-115.340;2023-07-16T12:03:26;87055.00;;;13.00
74539;BMP180;66042;51.090;-115.340;2023-07-16T12:05:53;87051.20;;;13.00
74539;BMP180;66042;51.090;-115.340;2023-07-16T12:08:20;87054.00;;;13.00
74539;BMP180;66042;51.090;-115.340;2023-07-16T12:10:47;87050.60;;;12.90
74539;BMP180;66042;51.090;-115.340;2023-07-16T12:13:14;87046.80;;;12.90
74539;BMP180;66042;51.090;-115.340;2023-07-16T12:15:41;87049.40;;;12.70
74539;BMP180;66042;51.090;-115.340;2023-07-16T12:18:08;87043.20;;;12.60
74539;BMP180;66042;51.090;-115.340;2023-07-16T12:20:35;87045.60;;;12.60
74539;BMP180;66042;51.090;-115.340;2023-07-16T12:23:06;87043.00;;;12.60
74539;BMP180;66042;51.090;-115.340;2023-07-16T12:25:33;87044.40;;;12.68
74539;BMP180;66042;51.090;-115.340;2023-07-16T12:28:01;87041.20;;;12.70
74539;BMP180;66042;51.090;-115.340;2023-07-16T12:30:28;87043.00;;;12.60
74539;BMP180;66042;51.090;-115.340;2023-07-16T12:32:55;87047.40;;;12.66
74539;BMP180;66042;51.090;-115.340;2023-07-16T12:35:22;87051.00;;;12.70
74539;BMP180;66042;51.090;-115.340;2023-07-16T12:37:49;87045.80;;;12.70
74539;BMP180;66042;51.090;-115.340;2023-07-16T12:40:16;87047.40;;;12.70
74539;BMP180;66042;51.090;-115.340;2023-07-16T12:42:43;87047.40;;;12.74
74539;BMP180;66042;51.090;-115.340;2023-07-16T12:45:10;87044.20;;;12.80
74539;BMP180;66042;51.090;-115.340;2023-07-16T12:47:37;87046.00;;;12.80
74539;BMP180;66042;51.090;-115.340;2023-07-16T12:50:06;87044.00;;;12.80
74539;BMP180;66042;51.090;-115.340;2023-07-16T12:52:33;87044.60;;;12.80
74539;BMP180;66042;51.090;-115.340;2023-07-16T12:55:01;87042.40;;;12.70
74539;BMP180;66042;51.090;-115.340;2023-07-16T12:57:27;87041.00;;;12.70
74539;BMP180;66042;51.090;-115.340;2023-07-16T12:59:54;87043.60;;;12.70
74539;BMP180;66042;51.090;-115.340;2023-07-16T13:02:21;87047.40;;;12.70
74539;BMP180;66042;51.090;-115.340;2023-07-16T13:04:48;87049.40;;;12.70
74539;BMP180;66042;51.090;-115.340;2023-07-16T13:07:16;87049.80;;;12.70
74539;BMP180;66042;51.090;-115.340;2023-07-16T13:09:43;87046.20;;;12.70
74539;BMP180;66042;51.090;-115.340;2023-07-16T13:12:10;87045.40;;;12.70
74539;BMP180;66042;51.090;-115.340;2023-07-16T13:14:37;87048.60;;;12.70
74539;BMP180;66042;51.090;-115.340;2023-07-16T13:17:04;87049.40;;;12.70
74539;BMP180;66042;51.090;-115.340;2023-07-16T13:19:31;87047.20;;;12.70
74539;BMP180;66042;51.090;-115.340;2023-07-16T13:21:58;87048.60;;;12.70
74539;BMP180;66042;51.090;-115.340;2023-07-16T13:24:25;87046.60;;;12.70
74539;BMP180;66042;51.090;-115.340;2023-07-16T13:26:52;87048.00;;;12.70
74539;BMP180;66042;51.090;-115.340;2023-07-16T13:29:19;87048.20;;;12.70
74539;BMP180;66042;51.090;-115.340;2023-07-16T13:31:46;87051.20;;;12.78
74539;BMP180;66042;51.090;-115.340;2023-07-16T13:34:12;87052.80;;;12.80
74539;BMP180;66042;51.090;-115.340;2023-07-16T13:36:39;87049.20;;;12.70
74539;BMP180;66042;51.090;-115.340;2023-07-16T13:39:06;87049.80;;;12.70
74539;BMP180;66042;51.090;-115.340;2023-07-16T13:41:33;87046.80;;;12.74
74539;BMP180;66042;51.090;-115.340;2023-07-16T13:44:01;87043.00;;;12.80
74539;BMP180;66042;51.090;-115.340;2023-07-16T13:46:28;87038.40;;;12.80